createdAt,value
2018-09-29T00:02:08.826Z,98995.83
2018-09-29T00:04:37.695Z,98995.85
2018-09-29T00:07:06.924Z,98999.08
2018-09-29T00:09:36.059Z,99002.13
2018-09-29T00:12:05.254Z,99001.06
2018-09-29T00:14:34.140Z,99006.02
2018-09-29T00:17:03.731Z,99012.75
2018-09-29T00:19:32.621Z,99015.00
2018-09-29T00:22:02.543Z,99018.89
2018-09-29T00:24:31.494Z,99018.63
2018-09-29T00:27:00.600Z,99021.54
2018-09-29T00:29:30.169Z,99016.36
2018-09-29T00:31:59.123Z,99019.12
2018-09-29T00:34:28.681Z,99015.89
2018-09-29T00:36:57.551Z,99021.63
2018-09-29T00:39:26.814Z,99023.88
2018-09-29T00:41:57.156Z,99020.14
2018-09-29T00:44:25.884Z,99015.30
2018-09-29T00:46:55.370Z,99021.00
2018-09-29T00:49:24.745Z,99016.70
2018-09-29T00:51:53.949Z,99031.58
2018-09-29T00:54:23.123Z,99024.02
2018-09-29T00:56:52.299Z,99032.44
2018-09-29T00:59:20.937Z,99030.56
2018-09-29T01:01:49.791Z,99023.57
2018-09-29T01:04:19.124Z,99026.86
2018-09-29T01:06:48.150Z,99019.56
2018-09-29T01:09:17.139Z,99018.48
2018-09-29T01:11:46.660Z,99011.15
2018-09-29T01:14:16.094Z,99011.73
2018-09-29T01:16:45.141Z,99024.77
2018-09-29T01:19:14.394Z,99024.48
2018-09-29T01:21:43.279Z,99011.22
2018-09-29T01:24:12.731Z,99007.92
2018-09-29T01:26:42.088Z,99004.42
2018-09-29T01:29:11.117Z,99010.96
2018-09-29T01:31:39.966Z,99009.36
2018-09-29T01:34:08.680Z,99007.48
2018-09-29T01:36:37.332Z,98997.68
2018-09-29T01:39:07.832Z,98991.76
2018-09-29T01:41:36.622Z,98995.08
2018-09-29T01:44:05.738Z,98982.95
2018-09-29T01:46:35.781Z,98983.27
2018-09-29T01:49:04.961Z,98979.63
2018-09-29T01:51:34.216Z,98973.77
2018-09-29T01:54:03.091Z,98974.13
2018-09-29T01:56:31.853Z,98981.24
2018-09-29T01:59:00.607Z,98976.44
2018-09-29T02:01:30.136Z,98979.23
2018-09-29T02:03:59.244Z,98976.30
2018-09-29T02:06:28.451Z,98966.64
2018-09-29T02:08:57.934Z,98969.94
2018-09-29T02:11:27.105Z,98960.53
2018-09-29T02:13:55.944Z,98957.83
2018-09-29T02:16:25.261Z,98943.52
2018-09-29T02:18:54.745Z,98942.73
2018-09-29T02:21:23.595Z,98932.77
2018-09-29T02:23:54.344Z,98929.78
2018-09-29T02:26:23.383Z,98923.31
2018-09-29T02:28:52.626Z,98929.81
2018-09-29T02:31:21.585Z,98929.55
2018-09-29T02:33:50.997Z,98932.78
2018-09-29T02:36:19.880Z,98931.16
2018-09-29T02:38:49.395Z,98934.69
2018-09-29T02:41:18.282Z,98939.00
2018-09-29T02:43:47.132Z,98937.92
2018-09-29T02:46:16.165Z,98934.69
2018-09-29T02:48:45.376Z,98940.86
2018-09-29T02:51:14.576Z,98939.75
2018-09-29T02:53:43.416Z,98941.11
2018-09-29T02:56:12.192Z,98940.80
2018-09-29T02:58:41.402Z,98942.68
2018-09-29T03:01:10.427Z,98943.23
2018-09-29T03:03:39.440Z,98941.08
2018-09-29T03:06:09.131Z,98942.63
2018-09-29T03:08:39.342Z,98941.80
2018-09-29T03:11:08.390Z,98948.55
2018-09-29T03:13:37.262Z,98954.20
2018-09-29T03:16:06.776Z,98956.06
2018-09-29T03:18:35.722Z,98955.25
2018-09-29T03:21:04.349Z,98951.42
2018-09-29T03:23:33.672Z,98961.34
2018-09-29T03:26:03.740Z,98962.69
2018-09-29T03:28:32.878Z,98958.86
2018-09-29T03:31:02.417Z,98952.67
2018-09-29T03:33:31.411Z,98953.39
2018-09-29T03:36:00.298Z,98954.74
2018-09-29T03:38:28.981Z,98965.83
2018-09-29T03:40:57.705Z,98957.70
2018-09-29T03:43:26.352Z,98959.07
2018-09-29T03:45:55.533Z,98954.70
2018-09-29T03:48:24.808Z,98959.52
2018-09-29T03:50:53.980Z,98956.28
2018-09-29T03:53:24.210Z,98954.39
2018-09-29T03:55:53.602Z,98955.15
2018-09-29T03:58:22.456Z,98959.69
2018-09-29T04:00:52.086Z,98961.79
2018-09-29T04:03:21.024Z,98965.26
2018-09-29T04:05:50.047Z,98964.73
2018-09-29T04:08:19.522Z,98963.12
2018-09-29T04:10:48.565Z,98961.48
2018-09-29T04:13:17.211Z,98967.93
2018-09-29T04:15:46.211Z,98960.89
2018-09-29T04:18:15.116Z,98964.35
2018-09-29T04:20:43.946Z,98967.04
2018-09-29T04:23:12.616Z,98961.95
2018-09-29T04:25:42.070Z,98962.43
2018-09-29T04:28:11.307Z,98958.37
2018-09-29T04:30:40.590Z,98959.14
2018-09-29T04:33:09.390Z,98967.18
2018-09-29T04:35:40.013Z,98966.34
2018-09-29T04:38:08.778Z,98978.18
2018-09-29T04:40:38.377Z,98972.16
2018-09-29T04:43:07.607Z,98977.55
2018-09-29T04:45:36.764Z,98978.28
2018-09-29T04:48:06.080Z,98977.75
2018-09-29T04:50:35.616Z,98987.13
2018-09-29T04:53:04.486Z,98980.41
2018-09-29T04:55:33.642Z,98986.23
2018-09-29T04:58:03.322Z,98979.47
2018-09-29T05:00:32.177Z,98985.91
2018-09-29T05:03:00.791Z,98985.11
2018-09-29T05:05:29.656Z,98995.80
2018-09-29T05:07:58.786Z,98988.09
2018-09-29T05:10:28.163Z,98998.59
2018-09-29T05:12:57.210Z,98997.54
2018-09-29T05:15:25.951Z,99002.66
2018-09-29T05:17:54.800Z,99005.58
2018-09-29T05:20:23.896Z,99007.25
2018-09-29T05:22:52.437Z,99015.09
2018-09-29T05:25:21.258Z,99012.13
2018-09-29T05:27:49.963Z,99000.91
2018-09-29T05:30:18.951Z,99009.36
2018-09-29T05:32:47.782Z,99010.73
2018-09-29T05:35:16.441Z,99010.55
2018-09-29T05:37:45.546Z,99007.06
2018-09-29T05:40:15.491Z,99005.72
2018-09-29T05:42:45.007Z,99005.25
2018-09-29T05:45:14.261Z,99008.28
2018-09-29T05:47:43.227Z,99010.20
2018-09-29T05:50:11.857Z,99014.00
2018-09-29T05:52:40.978Z,99001.17
2018-09-29T05:55:11.037Z,99001.20
2018-09-29T05:57:40.118Z,99005.82
2018-09-29T06:00:08.835Z,99006.12
2018-09-29T06:02:38.808Z,99011.05
2018-09-29T06:05:07.473Z,99011.38
2018-09-29T06:07:36.485Z,99010.85
2018-09-29T06:10:06.545Z,99010.34
2018-09-29T06:12:35.362Z,99014.14
2018-09-29T06:15:05.188Z,99008.83
2018-09-29T06:17:34.163Z,99014.78
2018-09-29T06:20:03.453Z,99012.63
2018-09-29T06:22:32.696Z,99015.38
2018-09-29T06:25:02.058Z,99012.17
2018-09-29T06:27:31.074Z,99013.59
2018-09-29T06:30:00.152Z,99013.88
2018-09-29T06:32:29.137Z,99012.03
2018-09-29T06:34:58.819Z,99016.14
2018-09-29T06:37:27.453Z,99013.23
2018-09-29T06:39:56.367Z,99012.16
2018-09-29T06:42:25.087Z,99007.03
2018-09-29T06:44:54.707Z,99015.43
2018-09-29T06:47:23.984Z,99010.28
2018-09-29T06:49:52.983Z,99012.17
2018-09-29T06:52:21.959Z,99014.89
2018-09-29T06:54:51.624Z,99014.62
2018-09-29T06:57:20.937Z,99026.50
2018-09-29T06:59:50.457Z,99027.31
2018-09-29T07:02:19.198Z,99035.41
2018-09-29T07:04:48.080Z,99040.80
2018-09-29T07:07:17.820Z,99031.89
2018-09-29T07:09:46.902Z,99033.98
2018-09-29T07:12:16.083Z,99034.17
2018-09-29T07:14:45.523Z,99040.92
2018-09-29T07:17:14.541Z,99038.05
2018-09-29T07:19:43.731Z,99045.79
2018-09-29T07:22:13.026Z,99038.39
2018-09-29T07:24:41.860Z,99039.03
2018-09-29T07:27:10.577Z,99039.19
2018-09-29T07:29:39.701Z,99029.84
2018-09-29T07:32:08.482Z,99031.39
2018-09-29T07:34:38.354Z,99030.66
2018-09-29T07:37:07.387Z,99030.56
2018-09-29T07:39:36.573Z,99029.20
2018-09-29T07:42:05.832Z,99031.30
2018-09-29T07:44:35.298Z,99029.45
2018-09-29T07:47:04.240Z,99030.17
2018-09-29T07:49:33.033Z,99034.52
2018-09-29T07:52:02.544Z,99041.45
2018-09-29T07:54:31.448Z,99029.66
2018-09-29T07:57:00.197Z,99040.95
2018-09-29T07:59:29.332Z,99038.49
2018-09-29T08:02:01.645Z,99037.44
2018-09-29T08:04:30.773Z,99036.29
2018-09-29T08:06:59.911Z,99036.34
2018-09-29T08:09:29.133Z,99029.86
2018-09-29T08:11:57.968Z,99044.39
2018-09-29T08:14:27.579Z,99040.25
2018-09-29T08:16:56.834Z,99041.88
2018-09-29T08:19:27.148Z,99034.73
2018-09-29T08:21:56.452Z,99038.56
2018-09-29T08:24:25.157Z,99030.31
2018-09-29T08:26:54.709Z,99038.79
2018-09-29T08:29:24.958Z,99035.11
2018-09-29T08:31:53.788Z,99034.53
2018-09-29T08:34:22.611Z,99033.52
2018-09-29T08:36:51.732Z,99026.10
2018-09-29T08:39:21.148Z,99023.56
2018-09-29T08:41:50.227Z,99019.63
2018-09-29T08:44:19.623Z,99015.75
2018-09-29T08:46:48.910Z,99024.83
2018-09-29T08:49:17.812Z,99019.80
2018-09-29T08:51:46.842Z,99016.84
2018-09-29T08:54:16.497Z,99014.56
2018-09-29T08:56:45.587Z,99006.56
2018-09-29T08:59:14.829Z,99006.53
2018-09-29T09:01:44.103Z,99002.23
2018-09-29T09:04:13.143Z,99000.52
2018-09-29T09:06:42.067Z,99001.83
2018-09-29T09:09:12.164Z,99001.13
2018-09-29T09:11:41.855Z,98989.23
2018-09-29T09:14:11.005Z,98993.06
2018-09-29T09:16:39.814Z,98994.23
2018-09-29T09:19:09.683Z,98983.79
2018-09-29T09:21:39.674Z,98983.53
2018-09-29T09:24:09.156Z,98984.89
2018-09-29T09:26:38.393Z,98988.81
2018-09-29T09:29:07.532Z,98983.97
2018-09-29T09:31:36.699Z,98968.77
2018-09-29T09:34:05.747Z,98976.67
2018-09-29T09:36:34.932Z,98978.99
2018-09-29T09:39:05.025Z,98976.44
2018-09-29T09:41:35.266Z,98964.27
2018-09-29T09:44:05.044Z,98968.93
2018-09-29T09:46:34.983Z,98965.05
2018-09-29T09:49:04.817Z,98954.08
2018-09-29T09:51:34.279Z,98955.62
2018-09-29T09:54:03.677Z,98959.25
2018-09-29T09:56:33.017Z,98953.16
2018-09-29T09:59:01.935Z,98950.21
2018-09-29T10:01:39.099Z,98953.33
2018-09-29T10:04:08.345Z,98950.95
2018-09-29T10:06:37.308Z,98950.91
2018-09-29T10:09:09.763Z,98941.84
2018-09-29T10:11:38.725Z,98942.72
2018-09-29T10:14:08.218Z,98940.58
2018-09-29T10:16:37.614Z,98941.50
2018-09-29T10:19:07.935Z,98941.55
2018-09-29T10:21:36.667Z,98943.09
2018-09-29T10:24:05.763Z,98940.90
2018-09-29T10:26:35.365Z,98939.70
2018-09-29T10:29:04.308Z,98931.05
2018-09-29T10:31:33.010Z,98922.36
2018-09-29T10:34:02.716Z,98940.30
2018-09-29T10:36:31.875Z,98932.77
2018-09-29T10:39:01.159Z,98936.30
2018-09-29T10:41:30.914Z,98934.17
2018-09-29T10:44:00.238Z,98935.91
2018-09-29T10:46:30.069Z,98931.52
2018-09-29T10:48:58.958Z,98924.16
2018-09-29T10:51:28.627Z,98921.54
2018-09-29T10:53:57.383Z,98922.43
2018-09-29T10:56:26.239Z,98916.95
2018-09-29T10:58:55.762Z,98905.84
2018-09-29T11:01:25.045Z,98901.10
2018-09-29T11:03:53.868Z,98898.44
2018-09-29T11:06:23.467Z,98898.88
2018-09-29T11:08:52.885Z,98895.53
2018-09-29T11:11:21.987Z,98903.09
2018-09-29T11:13:51.325Z,98894.14
2018-09-29T11:16:21.595Z,98892.83
2018-09-29T11:18:51.354Z,98887.63
2018-09-29T11:21:20.849Z,98879.42
2018-09-29T11:23:49.989Z,98882.09
2018-09-29T11:26:20.158Z,98879.84
2018-09-29T11:28:49.691Z,98880.50
2018-09-29T11:31:18.635Z,98873.02
2018-09-29T11:33:47.398Z,98861.34
2018-09-29T11:36:16.255Z,98868.34
2018-09-29T11:38:44.978Z,98863.68
2018-09-29T11:41:14.600Z,98854.78
2018-09-29T11:43:43.683Z,98850.72
2018-09-29T11:46:13.129Z,98852.90
2018-09-29T11:48:42.345Z,98847.38
2018-09-29T11:51:11.157Z,98842.41
2018-09-29T11:53:40.766Z,98839.54
2018-09-29T11:56:09.582Z,98832.84
2018-09-29T11:58:38.468Z,98828.95
2018-09-29T12:01:07.534Z,98831.78
2018-09-29T12:03:36.444Z,98822.45
2018-09-29T12:06:05.995Z,98810.83
2018-09-29T12:08:35.268Z,98807.75
2018-09-29T12:11:04.219Z,98806.55
2018-09-29T12:13:32.904Z,98796.99
2018-09-29T12:16:01.744Z,98801.41
2018-09-29T12:18:31.158Z,98790.49
2018-09-29T12:21:00.145Z,98776.77
2018-09-29T12:23:29.508Z,98781.53
2018-09-29T12:25:59.634Z,98774.63
2018-09-29T12:28:28.958Z,98774.42
2018-09-29T12:30:59.143Z,98766.89
2018-09-29T12:33:28.242Z,98771.32
2018-09-29T12:35:57.439Z,98770.81
2018-09-29T12:38:26.765Z,98767.31
2018-09-29T12:40:56.005Z,98760.80
2018-09-29T12:43:25.062Z,98752.05
2018-09-29T12:45:54.316Z,98747.36
2018-09-29T12:48:23.984Z,98749.92
2018-09-29T12:50:52.751Z,98740.42
2018-09-29T12:53:21.640Z,98736.55
2018-09-29T12:55:51.166Z,98740.34
2018-09-29T12:58:20.229Z,98734.13
2018-09-29T13:00:49.859Z,98730.70
2018-09-29T13:03:19.025Z,98732.30
2018-09-29T13:05:48.033Z,98722.77
2018-09-29T13:08:17.450Z,98725.12
2018-09-29T13:10:46.124Z,98723.19
2018-09-29T13:13:14.792Z,98709.48
2018-09-29T13:15:44.055Z,98719.05
2018-09-29T13:18:13.260Z,98706.70
2018-09-29T13:20:42.951Z,98709.42
2018-09-29T13:23:13.634Z,98700.00
2018-09-29T13:25:42.853Z,98700.70
2018-09-29T13:28:12.171Z,98688.28
2018-09-29T13:30:41.161Z,98697.25
2018-09-29T13:33:10.420Z,98690.55
2018-09-29T13:35:39.841Z,98687.67
2018-09-29T13:38:08.966Z,98679.08
2018-09-29T13:40:38.385Z,98680.98
2018-09-29T13:43:07.325Z,98679.45
2018-09-29T13:45:37.730Z,98675.86
2018-09-29T13:48:07.935Z,98673.27
2018-09-29T13:50:36.619Z,98669.84
2018-09-29T13:53:05.685Z,98660.56
2018-09-29T13:55:35.049Z,98665.63
2018-09-29T13:58:03.903Z,98657.86
2018-09-29T14:00:34.350Z,98653.16
2018-09-29T14:03:03.052Z,98646.86
2018-09-29T14:05:31.869Z,98645.19
2018-09-29T14:08:09.787Z,98633.39
2018-09-29T14:10:39.587Z,98632.36
2018-09-29T14:13:09.990Z,98631.91
2018-09-29T14:15:41.015Z,98634.63
2018-09-29T14:18:10.420Z,98628.29
2018-09-29T14:20:40.823Z,98632.41
2018-09-29T14:23:09.881Z,98630.56
2018-09-29T14:25:39.044Z,98633.33
2018-09-29T14:28:09.266Z,98625.52
2018-09-29T14:30:38.675Z,98616.89
2018-09-29T14:33:08.316Z,98619.47
2018-09-29T14:35:37.959Z,98611.14
2018-09-29T14:38:07.641Z,98613.34
2018-09-29T14:40:37.322Z,98608.97
2018-09-29T14:43:07.124Z,98607.73
2018-09-29T14:45:36.441Z,98605.19
2018-09-29T14:48:06.850Z,98610.59
2018-09-29T14:50:36.867Z,98601.19
2018-09-29T14:53:07.376Z,98596.45
2018-09-29T14:55:38.805Z,98600.05
2018-09-29T14:58:08.410Z,98600.38
2018-09-29T15:00:38.860Z,98607.69
2018-09-29T15:03:07.955Z,98597.06
2018-09-29T15:05:36.939Z,98599.49
2018-09-29T15:08:06.656Z,98595.58
2018-09-29T15:10:35.702Z,98600.38
2018-09-29T15:13:04.706Z,98595.00
2018-09-29T15:15:34.125Z,98600.58
2018-09-29T15:18:03.241Z,98592.56
2018-09-29T15:20:32.358Z,98587.33
2018-09-29T15:23:01.285Z,98591.64
2018-09-29T15:25:29.930Z,98585.81
2018-09-29T15:27:58.794Z,98586.02
2018-09-29T15:30:28.475Z,98587.38
2018-09-29T15:32:57.432Z,98581.08
2018-09-29T15:35:26.960Z,98581.25
2018-09-29T15:37:56.026Z,98578.69
2018-09-29T15:40:25.732Z,98567.84
2018-09-29T15:42:55.549Z,98565.83
2018-09-29T15:45:24.424Z,98572.77
2018-09-29T15:47:53.649Z,98563.98
2018-09-29T15:50:23.144Z,98576.45
2018-09-29T15:52:52.119Z,98582.13
2018-09-29T15:55:21.535Z,98575.05
2018-09-29T15:57:50.871Z,98576.08
2018-09-29T16:00:19.961Z,98572.60
2018-09-29T16:02:50.211Z,98576.80
2018-09-29T16:05:19.306Z,98569.90
2018-09-29T16:07:48.806Z,98570.30
2018-09-29T16:10:17.954Z,98570.61
2018-09-29T16:12:46.867Z,98572.13
2018-09-29T16:15:16.714Z,98565.56
2018-09-29T16:17:46.056Z,98562.97
2018-09-29T16:20:15.737Z,98569.98
2018-09-29T16:22:44.970Z,98570.63
2018-09-29T16:25:14.217Z,98571.43
2018-09-29T16:27:43.461Z,98562.89
2018-09-29T16:30:12.791Z,98563.01
2018-09-29T16:32:41.812Z,98563.59
2018-09-29T16:35:11.028Z,98566.41
2018-09-29T16:37:40.396Z,98561.13
2018-09-29T16:40:10.199Z,98574.32
2018-09-29T16:42:39.754Z,98568.39
2018-09-29T16:45:08.577Z,98570.40
2018-09-29T16:47:38.726Z,98579.41
2018-09-29T16:50:07.534Z,98566.48
2018-09-29T16:52:37.702Z,98579.89
2018-09-29T16:55:06.711Z,98577.16
2018-09-29T16:57:35.787Z,98575.13
2018-09-29T17:00:05.259Z,98587.61
2018-09-29T17:02:35.057Z,98587.08
2018-09-29T17:05:03.846Z,98585.38
2018-09-29T17:07:32.687Z,98585.22
2018-09-29T17:10:02.634Z,98587.75
2018-09-29T17:12:33.045Z,98590.89
2018-09-29T17:15:01.813Z,98596.26
2018-09-29T17:17:30.811Z,98595.08
2018-09-29T17:20:01.618Z,98594.30
2018-09-29T17:22:30.328Z,98601.92
2018-09-29T17:24:59.383Z,98601.69
2018-09-29T17:27:28.388Z,98608.41
2018-09-29T17:29:57.078Z,98609.81
2018-09-29T17:32:25.973Z,98607.53
2018-09-29T17:34:54.867Z,98605.37
2018-09-29T17:37:23.766Z,98605.38
2018-09-29T17:39:53.771Z,98611.23
2018-09-29T17:42:22.927Z,98613.23
2018-09-29T17:44:52.225Z,98611.72
2018-09-29T17:47:20.946Z,98618.44
2018-09-29T17:49:50.648Z,98620.42
2018-09-29T17:52:20.907Z,98608.86
2018-09-29T17:54:50.003Z,98616.69
2018-09-29T17:57:19.227Z,98617.81
2018-09-29T17:59:48.468Z,98620.23
2018-09-29T18:02:17.742Z,98616.65
2018-09-29T18:04:47.037Z,98620.10
2018-09-29T18:07:15.786Z,98627.52
2018-09-29T18:09:45.545Z,98624.91
2018-09-29T18:12:14.282Z,98626.93
2018-09-29T18:14:43.046Z,98627.95
2018-09-29T18:17:13.091Z,98627.23
2018-09-29T18:19:42.340Z,98630.35
2018-09-29T18:22:11.371Z,98630.55
2018-09-29T18:24:40.656Z,98627.75
2018-09-29T18:27:09.946Z,98635.30
2018-09-29T18:29:39.184Z,98632.67
2018-09-29T18:32:08.297Z,98635.91
2018-09-29T18:34:37.618Z,98630.97
2018-09-29T18:37:06.802Z,98639.47
2018-09-29T18:39:36.458Z,98630.17
2018-09-29T18:42:05.348Z,98637.20
2018-09-29T18:44:34.407Z,98635.50
2018-09-29T18:47:03.891Z,98628.56
2018-09-29T18:49:32.947Z,98626.99
2018-09-29T18:52:02.257Z,98635.95
2018-09-29T18:54:31.433Z,98630.64
2018-09-29T18:57:00.711Z,98633.91
2018-09-29T18:59:29.868Z,98625.57
2018-09-29T19:01:59.132Z,98633.14
2018-09-29T19:04:28.346Z,98634.30
2018-09-29T19:06:57.513Z,98631.91
2018-09-29T19:09:27.027Z,98635.67
2018-09-29T19:11:56.080Z,98639.27
2018-09-29T19:14:25.272Z,98631.25
2018-09-29T19:16:54.457Z,98633.44
2018-09-29T19:19:23.667Z,98641.84
2018-09-29T19:21:52.709Z,98634.58
2018-09-29T19:24:22.283Z,98638.14
2018-09-29T19:26:51.382Z,98637.91
2018-09-29T19:29:20.512Z,98634.11
2018-09-29T19:31:49.838Z,98633.62
2018-09-29T19:34:19.947Z,98629.33
2018-09-29T19:36:49.127Z,98627.98
2018-09-29T19:39:18.376Z,98632.59
2018-09-29T19:41:47.691Z,98626.95
2018-09-29T19:44:17.702Z,98632.91
2018-09-29T19:46:47.779Z,98626.97
2018-09-29T19:49:18.084Z,98631.02
2018-09-29T19:51:47.303Z,98631.00
2018-09-29T19:54:16.665Z,98624.80
2018-09-29T19:56:45.872Z,98626.14
2018-09-29T19:59:15.215Z,98630.98
2018-09-29T20:01:44.363Z,98630.71
2018-09-29T20:04:13.584Z,98627.22
2018-09-29T20:06:42.689Z,98630.41
2018-09-29T20:09:12.908Z,98630.14
2018-09-29T20:11:42.275Z,98621.25
2018-09-29T20:14:11.433Z,98620.98
2018-09-29T20:16:40.874Z,98622.58
2018-09-29T20:19:09.978Z,98625.27
2018-09-29T20:21:39.230Z,98620.92
2018-09-29T20:24:08.212Z,98615.55
2018-09-29T20:26:37.502Z,98617.41
2018-09-29T20:29:07.547Z,98619.02
2018-09-29T20:31:37.084Z,98617.70
2018-09-29T20:34:06.162Z,98614.97
2018-09-29T20:36:35.589Z,98614.40
2018-09-29T20:39:06.787Z,98612.50
2018-09-29T20:41:35.929Z,98616.78
2018-09-29T20:44:05.648Z,98618.05
2018-09-29T20:46:35.692Z,98610.25
2018-09-29T20:49:04.724Z,98611.56
2018-09-29T20:51:33.643Z,98612.88
2018-09-29T20:54:04.033Z,98612.06
2018-09-29T20:56:33.047Z,98611.21
2018-09-29T20:59:02.384Z,98618.14
2018-09-29T21:01:31.363Z,98608.98
2018-09-29T21:04:00.638Z,98612.97
2018-09-29T21:06:29.442Z,98610.81
2018-09-29T21:08:58.415Z,98605.16
2018-09-29T21:11:27.407Z,98605.69
2018-09-29T21:13:56.392Z,98606.71
2018-09-29T21:16:25.364Z,98603.20
2018-09-29T21:18:55.030Z,98605.33
2018-09-29T21:21:24.086Z,98605.24
2018-09-29T21:23:53.613Z,98602.03
2018-09-29T21:26:23.984Z,98601.98
2018-09-29T21:28:52.919Z,98605.20
2018-09-29T21:31:22.049Z,98599.83
2018-09-29T21:33:51.677Z,98598.97
2018-09-29T21:36:20.530Z,98599.55
2018-09-29T21:38:49.747Z,98601.16
2018-09-29T21:41:19.019Z,98600.28
2018-09-29T21:43:47.832Z,98598.13
2018-09-29T21:46:16.448Z,98599.32
2018-09-29T21:48:45.702Z,98599.84
2018-09-29T21:51:17.028Z,98603.30
2018-09-29T21:53:46.097Z,98599.39
2018-09-29T21:56:15.371Z,98601.79
2018-09-29T21:58:44.392Z,98592.66
2018-09-29T22:01:18.660Z,98596.66
2018-09-29T22:03:47.743Z,98596.16
2018-09-29T22:06:17.221Z,98595.28
2018-09-29T22:08:46.183Z,98591.70
2018-09-29T22:11:15.520Z,98596.02
2018-09-29T22:13:44.778Z,98590.65
2018-09-29T22:16:14.028Z,98589.86
2018-09-29T22:18:43.174Z,98587.77
2018-09-29T22:21:12.571Z,98585.58
2018-09-29T22:23:41.898Z,98582.58
2018-09-29T22:26:11.004Z,98583.80
2018-09-29T22:28:40.423Z,98583.56
2018-09-29T22:31:09.276Z,98576.56
2018-09-29T22:33:38.281Z,98569.74
2018-09-29T22:36:07.633Z,98576.15
2018-09-29T22:38:36.327Z,98569.67
2018-09-29T22:41:05.110Z,98574.64
2018-09-29T22:43:34.404Z,98570.92
2018-09-29T22:46:03.763Z,98574.64
2018-09-29T22:48:32.750Z,98575.20
2018-09-29T22:51:02.205Z,98563.59
2018-09-29T22:53:31.192Z,98568.30
2018-09-29T22:56:00.332Z,98568.55
2018-09-29T22:58:29.782Z,98569.38
2018-09-29T23:00:58.961Z,98558.29
2018-09-29T23:03:28.549Z,98561.79
2018-09-29T23:05:57.353Z,98556.39
2018-09-29T23:08:26.565Z,98552.19
2018-09-29T23:10:55.494Z,98554.69
2018-09-29T23:13:24.233Z,98553.53
2018-09-29T23:15:53.485Z,98551.00
2018-09-29T23:18:22.368Z,98539.98
2018-09-29T23:20:50.973Z,98545.08
2018-09-29T23:23:20.078Z,98541.36
2018-09-29T23:25:50.323Z,98540.47
2018-09-29T23:28:19.068Z,98528.98
2018-09-29T23:30:48.659Z,98531.28
2018-09-29T23:33:17.497Z,98524.59
2018-09-29T23:35:47.116Z,98525.19
2018-09-29T23:38:15.970Z,98524.59
2018-09-29T23:40:45.574Z,98522.39
2018-09-29T23:43:15.724Z,98521.53
2018-09-29T23:45:44.988Z,98526.52
2018-09-29T23:48:14.220Z,98526.98
2018-09-29T23:50:43.571Z,98518.57
2018-09-29T23:53:12.245Z,98524.36
2018-09-29T23:55:41.795Z,98527.51
2018-09-29T23:58:11.254Z,98524.83
